MMTJ

General Abelardo L. Rodríguez International Airport

Tijuana, Mexico
TAF AMD MMTJ 210825Z 2108/2212 00000KT 6SM HZ OVC010 TX26/2120Z TN19/2112Z TEMPO 2110/2114 2SM BR OVC005 FM211500 30010KT 5SM HZ BKN015 FM211800 33010KT 6SM HZ SCT020 FM220300 30005KT 6SM HZ SCT015
Issued Valid From Valid To
Jul-21 @ 08:25 UTC
(2 hours ago)
Jul-21 @ 08:00 UTC
(2 hours ago)
Jul-22 @ 12:00 UTC
(-1 days ago)
Jul-21 @ 08:00 to Jul-21 @ 15:00
TAF AMD MMTJ 210825Z 2108/2212 00000KT 6SM HZ OVC010 TX26/2120Z TN19/2112Z
Visibility Clouds Conditions
6 miles
  • Overcast at 1,000' AGL
  • Haze
Temporary Jul-21 @ 10:00 to Jul-21 @ 14:00
TEMPO 2110/2114 2SM BR OVC005
Visibility Clouds Conditions
2 miles
  • Overcast at 500' AGL
  • Mist
From Jul-21 @ 15:00 to Jul-21 @ 18:00
FM211500 30010KT 5SM HZ BKN015
Wind Visibility Clouds Conditions
300° at 10 knots 5 miles
  • Broken at 1,500' AGL
  • Haze
From Jul-21 @ 18:00 to Jul-22 @ 03:00
FM211800 33010KT 6SM HZ SCT020
Wind Visibility Clouds Conditions
330° at 10 knots 6 miles
  • Scattered at 2,000' AGL
  • Haze
From Jul-22 @ 03:00 to Jul-22 @ 12:00
FM220300 30005KT 6SM HZ SCT015
Wind Visibility Clouds Conditions
300° at 5 knots 6 miles
  • Scattered at 1,500' AGL
  • Haze
TAF AMD MMTJ 210825Z 2108/2212 00000KT 6SM HZ OVC010 TX26/2120Z TN19/2112Z TEMPO 2110/2114 2SM BR OVC005 FM211500 30010KT 5SM HZ BKN015 FM211800 33010KT 6SM HZ SCT020 FM220300 30005KT 6SM HZ SCT015
Issued Jul-21 @ 08:25 UTC
(2 hours ago)
Valid From Jul-21 @ 08:00 UTC
(2 hours ago)
Valid To Jul-22 @ 12:00 UTC
(-1 days ago)
Jul-21 @ 08:00 - Jul-21 @ 15:00
Clouds
  • Overcast at 1,000' AGL
Conditions
  • Haze
Temporary Jul-21 @ 10:00 - Jul-21 @ 14:00
Clouds
  • Overcast at 500' AGL
Conditions
  • Mist
From Jul-21 @ 15:00 - Jul-21 @ 18:00
Wind Visibility
300° at 10 knots 5 miles
Clouds
  • Broken at 1,500' AGL
Conditions
  • Haze
From Jul-21 @ 18:00 - Jul-22 @ 03:00
Wind Visibility
330° at 10 knots 6 miles
Clouds
  • Scattered at 2,000' AGL
Conditions
  • Haze
From Jul-22 @ 03:00 - Jul-22 @ 12:00
Wind Visibility
300° at 5 knots 6 miles
Clouds
  • Scattered at 1,500' AGL
Conditions
  • Haze